VLG13QC LEBL-LEMH
Flight info
| Callsign | VLG13QC |
|---|---|
| Flight time | 0h 36m |
| Altitude | 19000 |
| Route | DUNES Q700 SARGO |
| Aircraft | A320/M-SDFGHILORVWXY/LB1 |
Departure
| Time | 2026-05-06 14:40 |
|---|---|
| Airport | Josep Tarradellas Barcelona-El Prat Airport (LEBL) |
Arrival
| Time | 2026-05-06 15:16 |
|---|---|
| Airport | Menorca Airport (LEMH) |
| Time | Latitude | Longitude | Altitude | Speed | Heading |
|---|---|---|---|---|---|
| 2026-05-06 14:26 | 41.29174 | 2.08013 | 19 ft | 0 kts | 155° |
| 2026-05-06 14:28 | 41.29179 | 2.08010 | 20 ft | 4 kts | 155° |
| 2026-05-06 14:28 | 41.29204 | 2.07995 | 19 ft | 4 kts | 155° |
| 2026-05-06 14:29 | 41.29227 | 2.07981 | 20 ft | 4 kts | 145° |
| 2026-05-06 14:29 | 41.29239 | 2.07956 | 19 ft | 4 kts | 83° |
| 2026-05-06 14:29 | 41.29233 | 2.07926 | 22 ft | 1 kts | 65° |
| 2026-05-06 14:29 | 41.29225 | 2.07904 | 22 ft | 0 kts | 65° |
| 2026-05-06 14:32 | 41.29227 | 2.07910 | 21 ft | 4 kts | 66° |
| 2026-05-06 14:32 | 41.29251 | 2.07980 | 19 ft | 10 kts | 66° |
| 2026-05-06 14:32 | 41.29280 | 2.08066 | 21 ft | 10 kts | 65° |
| 2026-05-06 14:32 | 41.29310 | 2.08150 | 21 ft | 10 kts | 64° |
| 2026-05-06 14:33 | 41.29338 | 2.08231 | 20 ft | 10 kts | 66° |
| 2026-05-06 14:33 | 41.29365 | 2.08311 | 19 ft | 9 kts | 67° |
| 2026-05-06 14:33 | 41.29350 | 2.08378 | 20 ft | 7 kts | 132° |
| 2026-05-06 14:33 | 41.29314 | 2.08412 | 20 ft | 6 kts | 146° |
| 2026-05-06 14:34 | 41.29279 | 2.08434 | 20 ft | 6 kts | 156° |
| 2026-05-06 14:34 | 41.29234 | 2.08460 | 21 ft | 9 kts | 157° |
| 2026-05-06 14:34 | 41.29164 | 2.08503 | 19 ft | 13 kts | 154° |
| 2026-05-06 14:34 | 41.29071 | 2.08558 | 16 ft | 16 kts | 156° |
| 2026-05-06 14:35 | 41.28966 | 2.08618 | 19 ft | 17 kts | 155° |
| 2026-05-06 14:35 | 41.28870 | 2.08696 | 17 ft | 13 kts | 115° |
| 2026-05-06 14:35 | 41.28889 | 2.08807 | 18 ft | 12 kts | 68° |
| 2026-05-06 14:35 | 41.28923 | 2.08904 | 18 ft | 11 kts | 65° |
| 2026-05-06 14:36 | 41.28954 | 2.08995 | 16 ft | 10 kts | 65° |
| 2026-05-06 14:36 | 41.28992 | 2.09108 | 19 ft | 19 kts | 65° |
| 2026-05-06 14:36 | 41.29044 | 2.09262 | 17 ft | 17 kts | 65° |
| 2026-05-06 14:36 | 41.29093 | 2.09401 | 17 ft | 16 kts | 65° |
| 2026-05-06 14:37 | 41.29136 | 2.09530 | 18 ft | 15 kts | 67° |
| 2026-05-06 14:37 | 41.29178 | 2.09648 | 17 ft | 14 kts | 65° |
| 2026-05-06 14:37 | 41.29215 | 2.09758 | 18 ft | 13 kts | 66° |
| 2026-05-06 14:37 | 41.29249 | 2.09859 | 17 ft | 11 kts | 65° |
| 2026-05-06 14:38 | 41.29289 | 2.09944 | 18 ft | 10 kts | 56° |
| 2026-05-06 14:38 | 41.29320 | 2.10026 | 17 ft | 10 kts | 69° |
| 2026-05-06 14:38 | 41.29315 | 2.10114 | 16 ft | 10 kts | 102° |
| 2026-05-06 14:38 | 41.29289 | 2.10222 | 15 ft | 13 kts | 111° |
| 2026-05-06 14:39 | 41.29240 | 2.10300 | 14 ft | 10 kts | 174° |
| 2026-05-06 14:39 | 41.29202 | 2.10269 | 17 ft | 0 kts | 240° |
| 2026-05-06 14:39 | 41.29168 | 2.10172 | 18 ft | 41 kts | 247° |
| 2026-05-06 14:40 | 41.28940 | 2.09507 | 21 ft | 114 kts | 246° |
| 2026-05-06 14:40 | 41.28531 | 2.08323 | 154 ft | 156 kts | 242° |
| 2026-05-06 14:40 | 41.28023 | 2.07106 | 963 ft | 151 kts | 225° |
| 2026-05-06 14:40 | 41.27138 | 2.06302 | 1546 ft | 165 kts | 197° |
| 2026-05-06 14:41 | 41.25922 | 2.06170 | 2055 ft | 186 kts | 184° |
| 2026-05-06 14:41 | 41.24562 | 2.06093 | 2513 ft | 207 kts | 185° |
| 2026-05-06 14:41 | 41.23091 | 2.06008 | 3081 ft | 219 kts | 185° |
| 2026-05-06 14:41 | 41.21548 | 2.05920 | 3804 ft | 225 kts | 184° |
| 2026-05-06 14:42 | 41.19984 | 2.05832 | 4686 ft | 226 kts | 185° |
| 2026-05-06 14:42 | 41.18378 | 2.05869 | 5364 ft | 243 kts | 170° |
| 2026-05-06 14:42 | 41.16807 | 2.06944 | 5832 ft | 273 kts | 136° |
| 2026-05-06 14:42 | 41.15826 | 2.09163 | 6586 ft | 286 kts | 111° |
| 2026-05-06 14:43 | 41.15129 | 2.11656 | 7508 ft | 291 kts | 110° |
| 2026-05-06 14:43 | 41.14456 | 2.14206 | 8466 ft | 295 kts | 109° |
| 2026-05-06 14:43 | 41.13782 | 2.16792 | 9434 ft | 299 kts | 110° |
| 2026-05-06 14:43 | 41.13094 | 2.19419 | 10258 ft | 307 kts | 110° |
| 2026-05-06 14:44 | 41.12355 | 2.22197 | 10616 ft | 331 kts | 110° |
| 2026-05-06 14:44 | 41.11564 | 2.25128 | 11260 ft | 342 kts | 110° |
| 2026-05-06 14:44 | 41.10751 | 2.28119 | 12060 ft | 347 kts | 110° |
| 2026-05-06 14:45 | 41.09078 | 2.34226 | 13701 ft | 357 kts | 111° |
| 2026-05-06 14:45 | 41.08218 | 2.37340 | 14412 ft | 362 kts | 111° |
| 2026-05-06 14:45 | 41.07343 | 2.40501 | 15091 ft | 368 kts | 112° |
| 2026-05-06 14:45 | 41.06456 | 2.43709 | 15763 ft | 374 kts | 112° |
| 2026-05-06 14:46 | 41.05557 | 2.46969 | 16424 ft | 380 kts | 113° |
| 2026-05-06 14:46 | 41.04645 | 2.50279 | 17085 ft | 385 kts | 114° |
| 2026-05-06 14:46 | 41.03719 | 2.53637 | 17742 ft | 391 kts | 114° |
| 2026-05-06 14:46 | 41.02778 | 2.57044 | 18376 ft | 397 kts | 114° |
| 2026-05-06 14:47 | 41.01825 | 2.60494 | 18795 ft | 401 kts | 115° |
| 2026-05-06 14:47 | 41.00865 | 2.63968 | 18921 ft | 401 kts | 115° |
| 2026-05-06 14:47 | 40.99927 | 2.67372 | 18936 ft | 388 kts | 115° |
| 2026-05-06 14:47 | 40.99006 | 2.70711 | 18949 ft | 385 kts | 115° |
| 2026-05-06 14:48 | 40.98084 | 2.74031 | 18948 ft | 384 kts | 115° |
| 2026-05-06 14:48 | 40.97161 | 2.77346 | 18951 ft | 384 kts | 115° |
| 2026-05-06 14:48 | 40.96239 | 2.80652 | 18950 ft | 384 kts | 115° |
| 2026-05-06 14:48 | 40.95314 | 2.83963 | 18948 ft | 384 kts | 115° |
| 2026-05-06 14:49 | 40.94388 | 2.87269 | 18953 ft | 383 kts | 115° |
| 2026-05-06 14:49 | 40.93461 | 2.90576 | 18953 ft | 383 kts | 115° |
| 2026-05-06 14:49 | 40.92533 | 2.93887 | 18956 ft | 383 kts | 115° |
| 2026-05-06 14:49 | 40.91607 | 2.97189 | 18957 ft | 383 kts | 115° |
| 2026-05-06 14:50 | 40.90677 | 3.00495 | 18956 ft | 384 kts | 115° |
| 2026-05-06 14:50 | 40.89747 | 3.03798 | 18955 ft | 384 kts | 115° |
| 2026-05-06 14:50 | 40.88816 | 3.07101 | 18952 ft | 384 kts | 115° |
| 2026-05-06 14:50 | 40.87886 | 3.10402 | 18954 ft | 384 kts | 115° |
| 2026-05-06 14:51 | 40.86966 | 3.13662 | 18956 ft | 384 kts | 115° |
| 2026-05-06 14:51 | 40.85899 | 3.16867 | 18948 ft | 378 kts | 124° |
| 2026-05-06 14:51 | 40.84600 | 3.19882 | 18956 ft | 377 kts | 125° |
| 2026-05-06 14:51 | 40.83299 | 3.22891 | 18961 ft | 377 kts | 125° |
| 2026-05-06 14:52 | 40.81999 | 3.25902 | 18963 ft | 377 kts | 125° |
| 2026-05-06 14:52 | 40.80700 | 3.28908 | 18965 ft | 377 kts | 125° |
| 2026-05-06 14:52 | 40.79398 | 3.31914 | 18967 ft | 377 kts | 125° |
| 2026-05-06 14:52 | 40.78096 | 3.34916 | 18969 ft | 377 kts | 125° |
| 2026-05-06 14:53 | 40.76797 | 3.37925 | 18971 ft | 377 kts | 125° |
| 2026-05-06 14:53 | 40.75501 | 3.40932 | 18972 ft | 377 kts | 125° |
| 2026-05-06 14:53 | 40.74201 | 3.43934 | 18973 ft | 377 kts | 125° |
| 2026-05-06 14:53 | 40.72897 | 3.46935 | 18974 ft | 377 kts | 125° |
| 2026-05-06 14:54 | 40.72015 | 3.48963 | 18971 ft | 377 kts | 125° |
| 2026-05-06 14:54 | 40.70710 | 3.51963 | 18973 ft | 377 kts | 125° |
| 2026-05-06 14:54 | 40.69421 | 3.54921 | 18975 ft | 377 kts | 125° |
| 2026-05-06 14:54 | 40.68095 | 3.57960 | 18976 ft | 377 kts | 125° |
| 2026-05-06 14:55 | 40.66787 | 3.60954 | 18976 ft | 377 kts | 125° |
| 2026-05-06 14:55 | 40.65495 | 3.63910 | 18976 ft | 377 kts | 125° |
| 2026-05-06 14:55 | 40.63745 | 3.67916 | 18977 ft | 377 kts | 125° |
| 2026-05-06 14:55 | 40.62878 | 3.69901 | 18977 ft | 377 kts | 125° |
| 2026-05-06 14:56 | 40.61575 | 3.72883 | 18851 ft | 372 kts | 125° |
| 2026-05-06 14:56 | 40.60300 | 3.75805 | 18620 ft | 365 kts | 125° |
| 2026-05-06 14:56 | 40.59040 | 3.78680 | 18386 ft | 361 kts | 126° |
| 2026-05-06 14:56 | 40.57788 | 3.81537 | 18135 ft | 360 kts | 125° |
| 2026-05-06 14:57 | 40.56536 | 3.84378 | 17863 ft | 358 kts | 125° |
| 2026-05-06 14:57 | 40.55285 | 3.87198 | 17596 ft | 355 kts | 125° |
| 2026-05-06 14:57 | 40.54046 | 3.90001 | 17324 ft | 352 kts | 125° |
| 2026-05-06 14:57 | 40.52847 | 3.92732 | 16932 ft | 338 kts | 125° |
| 2026-05-06 14:58 | 40.51685 | 3.95350 | 16516 ft | 325 kts | 128° |
| 2026-05-06 14:58 | 40.50281 | 3.97581 | 16120 ft | 312 kts | 143° |
| 2026-05-06 14:58 | 40.48554 | 3.99266 | 15782 ft | 314 kts | 156° |
| 2026-05-06 14:58 | 40.46538 | 4.00414 | 15510 ft | 316 kts | 169° |
| 2026-05-06 14:59 | 40.44414 | 4.01178 | 15216 ft | 317 kts | 170° |
| 2026-05-06 14:59 | 40.42286 | 4.01932 | 14930 ft | 316 kts | 169° |
| 2026-05-06 14:59 | 40.40165 | 4.02684 | 14630 ft | 315 kts | 169° |
| 2026-05-06 14:59 | 40.38048 | 4.03431 | 14359 ft | 315 kts | 170° |
| 2026-05-06 15:00 | 40.35937 | 4.04172 | 14081 ft | 314 kts | 169° |
| 2026-05-06 15:00 | 40.33832 | 4.04921 | 13797 ft | 313 kts | 169° |
| 2026-05-06 15:00 | 40.31738 | 4.05673 | 13486 ft | 311 kts | 169° |
| 2026-05-06 15:00 | 40.29655 | 4.06418 | 13193 ft | 310 kts | 169° |
| 2026-05-06 15:01 | 40.27576 | 4.07157 | 12920 ft | 309 kts | 169° |
| 2026-05-06 15:01 | 40.25506 | 4.07889 | 12640 ft | 307 kts | 169° |
| 2026-05-06 15:01 | 40.23445 | 4.08614 | 12360 ft | 306 kts | 169° |
| 2026-05-06 15:01 | 40.21391 | 4.09334 | 12080 ft | 305 kts | 169° |
| 2026-05-06 15:02 | 40.19373 | 4.10039 | 11809 ft | 304 kts | 169° |
| 2026-05-06 15:02 | 40.17309 | 4.10764 | 11531 ft | 302 kts | 169° |
| 2026-05-06 15:02 | 40.15312 | 4.11466 | 11257 ft | 301 kts | 169° |
| 2026-05-06 15:02 | 40.13293 | 4.12177 | 10983 ft | 300 kts | 168° |
| 2026-05-06 15:03 | 40.11278 | 4.12818 | 10710 ft | 295 kts | 177° |
| 2026-05-06 15:03 | 40.09267 | 4.12686 | 10413 ft | 287 kts | 197° |
| 2026-05-06 15:03 | 40.07466 | 4.11622 | 10120 ft | 277 kts | 217° |
| 2026-05-06 15:03 | 40.06123 | 4.09877 | 9846 ft | 271 kts | 236° |
| 2026-05-06 15:04 | 40.05199 | 4.07747 | 9573 ft | 269 kts | 241° |
| 2026-05-06 15:04 | 40.04222 | 4.05701 | 9308 ft | 270 kts | 236° |
| 2026-05-06 15:04 | 40.03077 | 4.03726 | 9058 ft | 269 kts | 231° |
| 2026-05-06 15:04 | 40.01837 | 4.01934 | 8809 ft | 270 kts | 226° |
| 2026-05-06 15:05 | 40.00468 | 4.00262 | 8557 ft | 270 kts | 222° |
| 2026-05-06 15:05 | 39.98992 | 3.98750 | 8304 ft | 270 kts | 217° |
| 2026-05-06 15:05 | 39.97421 | 3.97411 | 8051 ft | 270 kts | 212° |
| 2026-05-06 15:05 | 39.95762 | 3.96250 | 7785 ft | 271 kts | 207° |
| 2026-05-06 15:06 | 39.94023 | 3.95275 | 7532 ft | 273 kts | 202° |
| 2026-05-06 15:06 | 39.92214 | 3.94501 | 7286 ft | 274 kts | 197° |
| 2026-05-06 15:06 | 39.90358 | 3.93941 | 7026 ft | 274 kts | 192° |
| 2026-05-06 15:06 | 39.88470 | 3.93591 | 6796 ft | 274 kts | 187° |
| 2026-05-06 15:07 | 39.86567 | 3.93439 | 6579 ft | 274 kts | 182° |
| 2026-05-06 15:07 | 39.84660 | 3.93513 | 6331 ft | 274 kts | 176° |
| 2026-05-06 15:07 | 39.82769 | 3.93814 | 6071 ft | 274 kts | 172° |
| 2026-05-06 15:07 | 39.80909 | 3.94329 | 5816 ft | 274 kts | 166° |
| 2026-05-06 15:08 | 39.79090 | 3.95058 | 5567 ft | 273 kts | 161° |
| 2026-05-06 15:08 | 39.77333 | 3.95994 | 5314 ft | 273 kts | 156° |
| 2026-05-06 15:08 | 39.75642 | 3.97117 | 5064 ft | 273 kts | 151° |
| 2026-05-06 15:08 | 39.74036 | 3.98421 | 4814 ft | 272 kts | 146° |
| 2026-05-06 15:09 | 39.72530 | 3.99908 | 4560 ft | 271 kts | 140° |
| 2026-05-06 15:09 | 39.71138 | 4.01555 | 4304 ft | 270 kts | 135° |
| 2026-05-06 15:09 | 39.69862 | 4.03340 | 4060 ft | 269 kts | 130° |
| 2026-05-06 15:09 | 39.68715 | 4.05250 | 3814 ft | 267 kts | 125° |
| 2026-05-06 15:10 | 39.67704 | 4.07266 | 3561 ft | 266 kts | 120° |
| 2026-05-06 15:10 | 39.66833 | 4.09373 | 3318 ft | 264 kts | 115° |
| 2026-05-06 15:10 | 39.66130 | 4.11495 | 3215 ft | 248 kts | 110° |
| 2026-05-06 15:10 | 39.65588 | 4.13555 | 3105 ft | 235 kts | 106° |
| 2026-05-06 15:11 | 39.65341 | 4.15575 | 3003 ft | 222 kts | 82° |
| 2026-05-06 15:11 | 39.65914 | 4.17338 | 2902 ft | 209 kts | 48° |
| 2026-05-06 15:11 | 39.67099 | 4.18275 | 2799 ft | 198 kts | 7° |
| 2026-05-06 15:11 | 39.68451 | 4.18250 | 2702 ft | 192 kts | 2° |
| 2026-05-06 15:12 | 39.69762 | 4.18464 | 2610 ft | 189 kts | 10° |
| 2026-05-06 15:12 | 39.71057 | 4.18741 | 2521 ft | 188 kts | 10° |
| 2026-05-06 15:12 | 39.72335 | 4.19007 | 2436 ft | 182 kts | 9° |
| 2026-05-06 15:12 | 39.73540 | 4.19255 | 2248 ft | 175 kts | 9° |
| 2026-05-06 15:13 | 39.74716 | 4.19497 | 2080 ft | 167 kts | 9° |
| 2026-05-06 15:13 | 39.75840 | 4.19727 | 1954 ft | 159 kts | 9° |
| 2026-05-06 15:13 | 39.76873 | 4.19938 | 1887 ft | 143 kts | 10° |
| 2026-05-06 15:13 | 39.77840 | 4.20137 | 1732 ft | 138 kts | 10° |
| 2026-05-06 15:14 | 39.78775 | 4.20329 | 1563 ft | 135 kts | 10° |
| 2026-05-06 15:14 | 39.79700 | 4.20518 | 1386 ft | 134 kts | 11° |
| 2026-05-06 15:14 | 39.80617 | 4.20707 | 1211 ft | 133 kts | 10° |
| 2026-05-06 15:14 | 39.81531 | 4.20894 | 1037 ft | 133 kts | 11° |
| 2026-05-06 15:15 | 39.82439 | 4.21084 | 857 ft | 132 kts | 11° |
| 2026-05-06 15:15 | 39.83345 | 4.21272 | 702 ft | 132 kts | 11° |
| 2026-05-06 15:15 | 39.84248 | 4.21455 | 490 ft | 130 kts | 12° |
| 2026-05-06 15:15 | 39.85138 | 4.21637 | 333 ft | 129 kts | 11° |
| 2026-05-06 15:16 | 39.85961 | 4.21809 | 304 ft | 103 kts | 8° |
| 2026-05-06 15:16 | 39.86499 | 4.21918 | 303 ft | 54 kts | 8° |
| 2026-05-06 15:16 | 39.86676 | 4.21953 | 303 ft | 19 kts | 11° |
| 2026-05-06 15:16 | 39.86798 | 4.22022 | 302 ft | 17 kts | 27° |
| 2026-05-06 15:17 | 39.86884 | 4.22100 | 299 ft | 10 kts | 46° |
| 2026-05-06 15:17 | 39.86934 | 4.22172 | 300 ft | 9 kts | 64° |
| 2026-05-06 15:17 | 39.86926 | 4.22253 | 303 ft | 9 kts | 97° |
| 2026-05-06 15:17 | 39.86915 | 4.22357 | 297 ft | 14 kts | 109° |
| 2026-05-06 15:18 | 39.86833 | 4.22396 | 293 ft | 13 kts | 187° |
| 2026-05-06 15:18 | 39.86752 | 4.22376 | 292 ft | 11 kts | 190° |
| 2026-05-06 15:18 | 39.86676 | 4.22361 | 290 ft | 11 kts | 188° |
| 2026-05-06 15:18 | 39.86602 | 4.22344 | 290 ft | 4 kts | 189° |
| 2026-05-06 15:19 | 39.86584 | 4.22366 | 290 ft | 4 kts | 121° |
| 2026-05-06 15:19 | 39.86578 | 4.22407 | 287 ft | 5 kts | 99° |
| 2026-05-06 15:19 | 39.86575 | 4.22427 | 286 ft | 0 kts | 99° |